createdAt,value
2022-09-28T00:00:06.585Z,97.64
2022-09-28T00:03:09.409Z,98.30
2022-09-28T00:06:14.210Z,98.21
2022-09-28T00:09:17.608Z,98.78
2022-09-28T00:12:21.261Z,98.67
2022-09-28T00:15:27.344Z,98.76
2022-09-28T00:18:29.905Z,98.94
2022-09-28T00:21:35.996Z,99.13
2022-09-28T00:24:38.928Z,99.29
2022-09-28T00:27:41.381Z,99.44
2022-09-28T00:30:43.813Z,99.45
2022-09-28T00:33:50.304Z,99.13
2022-09-28T00:36:52.985Z,99.51
2022-09-28T00:39:55.564Z,99.89
2022-09-28T00:42:57.923Z,99.65
2022-09-28T00:46:12.776Z,100.00
2022-09-28T00:49:17.778Z,99.76
2022-09-28T00:52:25.443Z,100.00
2022-09-28T00:55:40.220Z,100.00
2022-09-28T00:58:48.651Z,100.00
2022-09-28T01:01:51.323Z,100.00
2022-09-28T01:04:54.622Z,100.00
2022-09-28T01:07:57.783Z,100.00
2022-09-28T01:11:00.440Z,100.00
2022-09-28T01:14:03.806Z,100.00
2022-09-28T01:17:17.282Z,100.00
2022-09-28T01:20:34.409Z,100.00
2022-09-28T01:24:15.042Z,100.00
2022-09-28T01:27:30.336Z,100.00
2022-09-28T01:30:46.560Z,100.00
2022-09-28T01:33:55.932Z,100.00
2022-09-28T01:37:01.980Z,100.00
2022-09-28T01:40:05.552Z,100.00
2022-09-28T01:43:17.642Z,100.00
2022-09-28T01:46:27.595Z,100.00
2022-09-28T01:49:55.584Z,100.00
2022-09-28T01:53:07.516Z,100.00
2022-09-28T01:56:21.395Z,100.00
2022-09-28T01:59:27.876Z,100.00
2022-09-28T02:02:36.129Z,100.00
2022-09-28T02:05:48.200Z,100.00
2022-09-28T02:08:54.658Z,100.00
2022-09-28T02:12:01.158Z,100.00
2022-09-28T02:15:23.328Z,100.00
2022-09-28T02:18:28.816Z,100.00
2022-09-28T02:21:39.334Z,100.00
2022-09-28T02:25:17.653Z,100.00
2022-09-28T02:28:20.141Z,100.00
2022-09-28T02:31:22.695Z,100.00
2022-09-28T02:34:25.215Z,100.00
2022-09-28T02:37:29.881Z,100.00
2022-09-28T02:40:34.100Z,100.00
2022-09-28T02:44:01.382Z,100.00
2022-09-28T02:47:33.284Z,100.00
2022-09-28T02:50:54.557Z,100.00
2022-09-28T02:54:54.218Z,100.00
2022-09-28T02:58:12.565Z,100.00
2022-09-28T03:01:33.367Z,100.00
2022-09-28T03:04:47.293Z,100.00
2022-09-28T03:08:02.789Z,100.00
2022-09-28T03:11:14.144Z,100.00
2022-09-28T03:14:16.794Z,100.00
2022-09-28T03:17:20.732Z,100.00
2022-09-28T03:20:23.615Z,100.00
2022-09-28T03:23:26.184Z,100.00
2022-09-28T03:26:28.693Z,100.00
2022-09-28T03:29:33.168Z,100.00
2022-09-28T03:32:35.658Z,100.00
2022-09-28T03:35:38.158Z,100.00
2022-09-28T03:38:41.323Z,100.00
2022-09-28T03:41:46.196Z,100.00
2022-09-28T03:44:48.672Z,100.00
2022-09-28T03:47:51.227Z,100.00
2022-09-28T03:50:57.586Z,100.00
2022-09-28T03:54:00.023Z,100.00
2022-09-28T03:57:05.758Z,100.00
2022-09-28T04:00:09.455Z,100.00
2022-09-28T04:03:11.879Z,100.00
2022-09-28T04:06:14.902Z,100.00
2022-09-28T04:09:17.554Z,100.00
2022-09-28T04:12:20.107Z,100.00
2022-09-28T04:15:23.587Z,100.00
2022-09-28T04:18:26.181Z,100.00
2022-09-28T04:21:28.622Z,100.00
2022-09-28T04:24:31.045Z,100.00
2022-09-28T04:27:52.179Z,100.00
2022-09-28T04:30:54.711Z,100.00
2022-09-28T04:33:57.904Z,100.00
2022-09-28T04:37:00.349Z,100.00
2022-09-28T04:40:03.249Z,100.00
2022-09-28T04:43:06.030Z,100.00
2022-09-28T04:46:10.878Z,100.00
2022-09-28T04:49:13.534Z,100.00
2022-09-28T04:52:18.255Z,100.00
2022-09-28T04:55:21.069Z,100.00
2022-09-28T04:58:23.634Z,100.00
2022-09-28T05:01:26.072Z,100.00
2022-09-28T05:04:28.563Z,100.00
2022-09-28T05:07:31.349Z,100.00
2022-09-28T05:10:33.903Z,100.00
2022-09-28T05:13:41.950Z,100.00
2022-09-28T05:16:44.842Z,100.00
2022-09-28T05:19:47.443Z,100.00
2022-09-28T05:22:49.815Z,100.00
2022-09-28T05:25:52.308Z,100.00
2022-09-28T05:28:54.707Z,100.00
2022-09-28T05:31:57.302Z,100.00
2022-09-28T05:35:01.303Z,100.00
2022-09-28T05:38:05.523Z,100.00
2022-09-28T05:41:07.964Z,100.00
2022-09-28T05:44:10.676Z,100.00
2022-09-28T05:47:13.175Z,100.00
2022-09-28T05:50:16.432Z,100.00
2022-09-28T05:53:18.915Z,100.00
2022-09-28T05:56:21.613Z,100.00
2022-09-28T05:59:24.065Z,100.00
2022-09-28T06:02:26.696Z,100.00
2022-09-28T06:05:29.388Z,100.00
2022-09-28T06:08:33.050Z,100.00
2022-09-28T06:11:35.520Z,100.00
2022-09-28T06:14:39.041Z,100.00
2022-09-28T06:17:41.595Z,100.00
2022-09-28T06:20:44.099Z,100.00
2022-09-28T06:23:49.151Z,100.00
2022-09-28T06:26:51.966Z,100.00
2022-09-28T06:29:54.433Z,100.00
2022-09-28T06:32:58.470Z,100.00
2022-09-28T06:36:01.075Z,100.00
2022-09-28T06:39:03.554Z,100.00
2022-09-28T06:42:06.635Z,100.00
2022-09-28T06:45:09.540Z,100.00
2022-09-28T06:48:12.170Z,100.00
2022-09-28T06:51:15.134Z,99.26
2022-09-28T06:54:17.652Z,96.98
2022-09-28T06:57:20.127Z,96.75
2022-09-28T07:00:22.668Z,96.52
2022-09-28T07:03:25.738Z,96.98
2022-09-28T07:06:31.632Z,95.15
2022-09-28T07:09:37.295Z,94.08
2022-09-28T07:12:44.322Z,93.22
2022-09-28T07:15:47.348Z,93.41
2022-09-28T07:18:49.791Z,91.60
2022-09-28T07:22:03.196Z,90.29
2022-09-28T07:25:10.034Z,89.37
2022-09-28T07:28:12.560Z,89.38
2022-09-28T07:31:15.219Z,90.08
2022-09-28T07:34:18.747Z,87.64
2022-09-28T07:37:21.316Z,87.55
2022-09-28T07:40:46.204Z,86.35
2022-09-28T07:43:50.566Z,83.16
2022-09-28T07:46:52.953Z,81.21
2022-09-28T07:49:58.860Z,80.98
2022-09-28T07:53:01.345Z,78.90
2022-09-28T07:56:07.399Z,79.52
2022-09-28T07:59:10.108Z,76.60
2022-09-28T08:02:13.880Z,72.85
2022-09-28T08:05:16.549Z,72.17
2022-09-28T08:08:20.735Z,70.85
2022-09-28T08:11:23.251Z,71.62
2022-09-28T08:14:27.178Z,70.45
2022-09-28T08:17:29.660Z,68.34
2022-09-28T08:20:51.922Z,68.94
2022-09-28T08:23:54.564Z,67.95
2022-09-28T08:26:57.374Z,67.85
2022-09-28T08:29:59.820Z,67.45
2022-09-28T08:33:02.259Z,67.06
2022-09-28T08:36:05.247Z,65.67
2022-09-28T08:39:07.771Z,66.91
2022-09-28T08:42:31.989Z,65.34
2022-09-28T08:45:36.550Z,66.00
2022-09-28T08:49:13.524Z,63.54
2022-09-28T08:52:27.055Z,63.53
2022-09-28T08:55:37.905Z,62.56
2022-09-28T08:58:43.714Z,62.68
2022-09-28T09:01:58.811Z,60.39
2022-09-28T09:05:04.238Z,61.21
2022-09-28T09:08:24.315Z,63.37
2022-09-28T09:11:32.821Z,60.91
2022-09-28T09:15:15.285Z,61.52
2022-09-28T09:18:23.031Z,60.66
2022-09-28T09:21:41.991Z,60.97
2022-09-28T09:24:52.080Z,59.35
2022-09-28T09:28:03.662Z,59.47
2022-09-28T09:31:31.184Z,58.07
2022-09-28T09:35:01.514Z,58.58
2022-09-28T09:38:36.385Z,58.48
2022-09-28T09:41:38.925Z,59.31
2022-09-28T09:44:48.875Z,59.18
2022-09-28T09:48:06.935Z,58.21
2022-09-28T09:51:25.047Z,59.14
2022-09-28T09:54:32.250Z,55.20
2022-09-28T09:57:45.422Z,56.08
2022-09-28T10:00:51.084Z,55.07
2022-09-28T10:03:54.688Z,55.50
2022-09-28T10:06:59.629Z,54.47
2022-09-28T10:10:02.841Z,54.92
2022-09-28T10:13:05.475Z,54.18
2022-09-28T10:16:08.100Z,53.50
2022-09-28T10:19:13.378Z,54.06
2022-09-28T10:22:22.631Z,54.61
2022-09-28T10:25:26.631Z,52.70
2022-09-28T10:29:04.945Z,52.76
2022-09-28T10:32:19.294Z,50.98
2022-09-28T10:35:23.394Z,51.38
2022-09-28T10:38:26.229Z,51.09
2022-09-28T10:41:28.793Z,50.64
2022-09-28T10:44:33.928Z,49.92
2022-09-28T10:47:36.605Z,50.72
2022-09-28T10:50:39.979Z,49.27
2022-09-28T10:53:42.664Z,49.80
2022-09-28T10:56:46.189Z,48.72
2022-09-28T10:59:48.656Z,47.96
2022-09-28T11:02:51.160Z,48.98
2022-09-28T11:05:55.842Z,47.14
2022-09-28T11:09:01.075Z,48.16
2022-09-28T11:12:06.094Z,50.28
2022-09-28T11:15:18.861Z,50.98
2022-09-28T11:18:32.488Z,51.76
2022-09-28T11:21:42.445Z,50.84
2022-09-28T11:24:45.045Z,50.76
2022-09-28T11:27:50.999Z,51.47
2022-09-28T11:30:54.340Z,50.33
2022-09-28T11:34:36.541Z,50.45
2022-09-28T11:38:14.141Z,47.89
2022-09-28T11:41:49.007Z,48.22
2022-09-28T11:44:58.438Z,51.49
2022-09-28T11:48:16.073Z,49.00
2022-09-28T11:51:23.470Z,48.52
2022-09-28T11:54:55.306Z,50.12
2022-09-28T11:58:05.892Z,51.33
2022-09-28T12:01:28.848Z,51.23
2022-09-28T12:04:50.855Z,50.29
2022-09-28T12:08:02.445Z,50.59
2022-09-28T12:11:13.574Z,50.58
2022-09-28T12:14:23.750Z,49.48
2022-09-28T12:18:11.613Z,51.48
2022-09-28T12:21:51.781Z,49.23
2022-09-28T12:24:56.723Z,47.39
2022-09-28T12:28:07.611Z,47.23
2022-09-28T12:31:54.702Z,48.70
2022-09-28T12:34:57.633Z,50.37
2022-09-28T12:38:10.336Z,51.92
2022-09-28T12:41:22.542Z,52.79
2022-09-28T12:44:52.901Z,55.08
2022-09-28T12:48:13.148Z,55.52
2022-09-28T12:51:38.719Z,55.42
2022-09-28T12:55:03.014Z,54.86
2022-09-28T12:58:08.610Z,54.30
2022-09-28T13:01:29.653Z,54.87
2022-09-28T13:04:51.351Z,54.03
2022-09-28T13:07:56.739Z,54.68
2022-09-28T13:11:07.887Z,54.47
2022-09-28T13:14:22.804Z,54.27
2022-09-28T13:17:43.913Z,55.31
2022-09-28T13:20:52.721Z,55.47
2022-09-28T13:24:09.082Z,54.75
2022-09-28T13:27:41.150Z,55.38
2022-09-28T13:30:45.262Z,54.97
2022-09-28T13:33:48.169Z,54.83
2022-09-28T13:37:22.212Z,55.35
2022-09-28T13:41:03.275Z,55.31
2022-09-28T13:44:05.686Z,55.47
2022-09-28T13:47:21.047Z,55.62
2022-09-28T13:50:42.320Z,56.92
2022-09-28T13:53:51.189Z,56.11
2022-09-28T13:56:53.579Z,55.43
2022-09-28T14:00:09.525Z,54.88
2022-09-28T14:03:18.564Z,54.00
2022-09-28T14:06:31.404Z,53.56
2022-09-28T14:10:06.389Z,54.50
2022-09-28T14:13:09.483Z,55.51
2022-09-28T14:16:32.035Z,56.24
2022-09-28T14:19:34.816Z,57.69
2022-09-28T14:22:52.361Z,58.77
2022-09-28T14:26:16.333Z,59.35
2022-09-28T14:29:32.552Z,60.27
2022-09-28T14:32:37.250Z,60.73
2022-09-28T14:35:40.810Z,61.06
2022-09-28T14:39:08.980Z,61.87
2022-09-28T14:42:15.371Z,61.42
2022-09-28T14:45:19.309Z,61.78
2022-09-28T14:48:23.689Z,61.08
2022-09-28T14:51:34.731Z,61.87
2022-09-28T14:54:50.930Z,62.58
2022-09-28T14:57:56.778Z,62.61
2022-09-28T15:01:07.748Z,61.22
2022-09-28T15:04:12.774Z,60.54
2022-09-28T15:07:21.546Z,60.58
2022-09-28T15:10:33.945Z,62.17
2022-09-28T15:13:40.409Z,63.11
2022-09-28T15:16:47.176Z,64.05
2022-09-28T15:20:04.843Z,64.55
2022-09-28T15:23:30.638Z,64.69
2022-09-28T15:26:33.609Z,65.20
2022-09-28T15:29:36.105Z,65.74
2022-09-28T15:32:38.592Z,66.14
2022-09-28T15:35:41.090Z,66.67
2022-09-28T15:38:52.583Z,68.02
2022-09-28T15:41:55.078Z,67.63
2022-09-28T15:45:32.859Z,67.83
2022-09-28T15:48:35.692Z,68.07
2022-09-28T15:51:52.276Z,67.96
2022-09-28T15:54:55.387Z,68.53
2022-09-28T15:58:15.129Z,68.85
2022-09-28T16:01:17.535Z,69.43
2022-09-28T16:04:54.441Z,69.15
2022-09-28T16:08:02.592Z,69.65
2022-09-28T16:11:27.983Z,69.65
2022-09-28T16:14:30.631Z,69.64
2022-09-28T16:17:35.067Z,70.16
2022-09-28T16:20:39.131Z,70.10
2022-09-28T16:23:42.096Z,70.12
2022-09-28T16:26:44.702Z,70.23
2022-09-28T16:30:13.920Z,70.22
2022-09-28T16:33:32.579Z,70.78
2022-09-28T16:36:43.831Z,71.83
2022-09-28T16:39:46.423Z,71.58
2022-09-28T16:42:49.524Z,72.01
2022-09-28T16:45:58.571Z,72.25
2022-09-28T16:49:03.370Z,72.44
2022-09-28T16:52:11.989Z,72.90
2022-09-28T16:58:39.907Z,74.62
2022-09-28T17:01:44.499Z,75.34
2022-09-28T17:04:47.836Z,76.01
2022-09-28T17:08:01.454Z,75.41
2022-09-28T17:11:24.030Z,75.99
2022-09-28T17:14:27.335Z,76.52
2022-09-28T17:17:31.589Z,76.70
2022-09-28T17:20:34.652Z,76.40
2022-09-28T17:23:37.207Z,76.66
2022-09-28T17:26:43.883Z,77.38
2022-09-28T17:29:46.361Z,77.74
2022-09-28T17:32:49.267Z,77.33
2022-09-28T17:35:52.961Z,77.56
2022-09-28T17:38:55.617Z,78.19
2022-09-28T17:41:58.106Z,78.49
2022-09-28T17:45:00.637Z,78.42
2022-09-28T17:48:03.406Z,78.69
2022-09-28T17:51:06.117Z,77.74
2022-09-28T17:54:19.464Z,78.24
2022-09-28T17:57:22.213Z,77.86
2022-09-28T18:00:27.637Z,78.26
2022-09-28T18:03:30.137Z,78.36
2022-09-28T18:06:37.389Z,78.62
2022-09-28T18:09:40.126Z,78.36
2022-09-28T18:12:43.459Z,78.82
2022-09-28T18:15:46.350Z,79.62
2022-09-28T18:18:49.229Z,79.37
2022-09-28T18:21:52.482Z,79.31
2022-09-28T18:24:55.132Z,80.00
2022-09-28T18:28:00.264Z,79.77
2022-09-28T18:31:11.025Z,80.11
2022-09-28T18:34:13.813Z,79.96
2022-09-28T18:37:16.490Z,80.59
2022-09-28T18:40:20.484Z,80.67
2022-09-28T18:43:23.479Z,81.03
2022-09-28T18:46:27.861Z,80.92
2022-09-28T18:49:34.435Z,81.72
2022-09-28T18:52:37.843Z,81.52
2022-09-28T18:55:44.564Z,82.30
2022-09-28T18:58:49.314Z,82.06
2022-09-28T19:01:53.067Z,82.88
2022-09-28T19:04:55.809Z,83.19
2022-09-28T19:08:01.559Z,83.45
2022-09-28T19:11:08.799Z,84.20
2022-09-28T19:14:15.121Z,84.05
2022-09-28T19:17:18.244Z,84.88
2022-09-28T19:20:22.376Z,84.48
2022-09-28T19:23:25.088Z,85.24
2022-09-28T19:26:28.659Z,85.39
2022-09-28T19:29:31.109Z,85.84
2022-09-28T19:32:33.755Z,85.93
2022-09-28T19:35:39.848Z,85.91
2022-09-28T19:38:46.369Z,86.16
2022-09-28T19:41:51.683Z,86.16
2022-09-28T19:44:54.162Z,86.58
2022-09-28T19:47:59.581Z,86.80
2022-09-28T19:51:05.448Z,87.07
2022-09-28T19:54:08.685Z,88.44
2022-09-28T19:57:12.544Z,88.42
2022-09-28T20:00:16.903Z,89.51
2022-09-28T20:03:19.588Z,90.13
2022-09-28T20:06:23.345Z,90.76
2022-09-28T20:09:25.849Z,90.65
2022-09-28T20:12:28.337Z,91.28
2022-09-28T20:15:35.804Z,91.60
2022-09-28T20:18:40.358Z,92.29
2022-09-28T20:21:42.813Z,92.40
2022-09-28T20:24:45.275Z,92.78
2022-09-28T20:27:47.763Z,93.25
2022-09-28T20:30:50.205Z,93.87
2022-09-28T20:33:53.127Z,94.50
2022-09-28T20:36:55.585Z,94.96
2022-09-28T20:39:58.336Z,95.09
2022-09-28T20:43:01.073Z,95.65
2022-09-28T20:46:05.170Z,96.25
2022-09-28T20:49:07.878Z,96.90
2022-09-28T20:52:11.038Z,98.15
2022-09-28T20:55:13.532Z,98.73
2022-09-28T20:58:18.463Z,98.84
2022-09-28T21:01:23.411Z,98.60
2022-09-28T21:04:27.151Z,99.47
2022-09-28T21:07:29.619Z,99.89
2022-09-28T21:10:32.444Z,100.00
2022-09-28T21:13:34.832Z,100.00
2022-09-28T21:16:37.668Z,100.00
2022-09-28T21:19:40.086Z,100.00
2022-09-28T21:22:45.587Z,100.00
2022-09-28T21:25:48.036Z,100.00
2022-09-28T21:29:04.636Z,100.00
2022-09-28T21:32:08.249Z,100.00
2022-09-28T21:35:10.690Z,100.00
2022-09-28T21:38:13.270Z,100.00
2022-09-28T21:41:15.953Z,100.00
2022-09-28T21:44:18.307Z,100.00
2022-09-28T21:47:20.815Z,100.00
2022-09-28T21:50:25.611Z,100.00
2022-09-28T21:53:30.552Z,100.00
2022-09-28T21:56:34.132Z,100.00
2022-09-28T21:59:36.607Z,100.00
2022-09-28T22:02:39.237Z,100.00
2022-09-28T22:05:41.671Z,100.00
2022-09-28T22:08:44.879Z,100.00
2022-09-28T22:11:49.168Z,100.00
2022-09-28T22:14:51.588Z,100.00
2022-09-28T22:17:54.095Z,100.00
2022-09-28T22:21:00.413Z,100.00
2022-09-28T22:24:07.285Z,100.00
2022-09-28T22:27:09.682Z,100.00
2022-09-28T22:30:13.262Z,100.00
2022-09-28T22:33:16.047Z,100.00
2022-09-28T22:36:20.040Z,100.00
2022-09-28T22:39:22.626Z,100.00
2022-09-28T22:42:25.355Z,100.00
2022-09-28T22:45:27.817Z,100.00
2022-09-28T22:48:30.306Z,100.00
2022-09-28T22:51:32.937Z,100.00
2022-09-28T22:54:35.398Z,100.00
2022-09-28T22:57:37.935Z,100.00
2022-09-28T23:00:40.488Z,100.00
2022-09-28T23:03:46.035Z,99.79
2022-09-28T23:06:48.483Z,99.73
2022-09-28T23:09:54.094Z,100.00
2022-09-28T23:12:56.572Z,100.00
2022-09-28T23:16:01.340Z,100.00
2022-09-28T23:19:04.086Z,100.00
2022-09-28T23:22:06.719Z,100.00
2022-09-28T23:25:09.424Z,100.00
2022-09-28T23:28:12.015Z,100.00
2022-09-28T23:31:20.056Z,100.00
2022-09-28T23:34:22.628Z,100.00
2022-09-28T23:37:25.059Z,100.00
2022-09-28T23:40:27.788Z,100.00
2022-09-28T23:43:30.199Z,100.00
2022-09-28T23:46:32.762Z,100.00
2022-09-28T23:49:35.400Z,100.00
2022-09-28T23:52:37.987Z,100.00
2022-09-28T23:55:41.974Z,100.00
2022-09-28T23:58:45.178Z,100.00
